createdAt,value
2018-09-10T00:01:54.343Z,15.80
2018-09-10T00:04:23.516Z,15.90
2018-09-10T00:06:52.841Z,15.90
2018-09-10T00:09:22.129Z,15.90
2018-09-10T00:11:52.152Z,15.80
2018-09-10T00:14:21.438Z,15.80
2018-09-10T00:16:50.619Z,15.70
2018-09-10T00:19:19.820Z,15.70
2018-09-10T00:21:49.029Z,15.70
2018-09-10T00:24:18.248Z,15.80
2018-09-10T00:26:47.452Z,15.80
2018-09-10T00:29:16.634Z,15.80
2018-09-10T00:31:45.847Z,15.80
2018-09-10T00:34:15.168Z,15.80
2018-09-10T00:36:44.315Z,15.80
2018-09-10T00:39:14.883Z,15.70
2018-09-10T00:41:44.279Z,15.70
2018-09-10T00:44:13.469Z,15.70
2018-09-10T00:46:42.877Z,15.70
2018-09-10T00:49:12.073Z,15.70
2018-09-10T00:51:41.260Z,15.70
2018-09-10T00:54:10.923Z,15.70
2018-09-10T00:56:40.285Z,15.70
2018-09-10T00:59:09.648Z,15.70
2018-09-10T01:01:38.882Z,15.70
2018-09-10T01:04:08.083Z,15.70
2018-09-10T01:06:37.390Z,15.60
2018-09-10T01:09:08.228Z,15.60
2018-09-10T01:11:37.830Z,15.60
2018-09-10T01:14:07.240Z,15.70
2018-09-10T01:16:36.534Z,15.70
2018-09-10T01:19:05.971Z,15.70
2018-09-10T01:21:35.323Z,15.70
2018-09-10T01:24:05.591Z,15.70
2018-09-10T01:26:34.852Z,15.60
2018-09-10T01:29:04.056Z,15.60
2018-09-10T01:31:33.272Z,15.50
2018-09-10T01:34:07.909Z,15.50
2018-09-10T01:36:37.108Z,15.40
2018-09-10T01:39:08.433Z,15.40
2018-09-10T01:41:37.745Z,15.40
2018-09-10T01:44:07.904Z,15.30
2018-09-10T01:46:38.001Z,15.20
2018-09-10T01:49:07.363Z,15.20
2018-09-10T01:51:36.680Z,15.20
2018-09-10T01:54:06.024Z,15.20
2018-09-10T01:56:35.373Z,15.20
2018-09-10T01:59:04.800Z,15.10
2018-09-10T02:01:34.041Z,15.00
2018-09-10T02:04:03.192Z,15.00
2018-09-10T02:06:32.309Z,15.10
2018-09-10T02:09:02.316Z,15.20
2018-09-10T02:11:31.692Z,15.30
2018-09-10T02:14:01.092Z,15.40
2018-09-10T02:16:30.449Z,15.50
2018-09-10T02:18:59.611Z,15.50
2018-09-10T02:21:28.901Z,15.50
2018-09-10T02:23:58.117Z,15.40
2018-09-10T02:26:27.312Z,15.40
2018-09-10T02:28:58.402Z,15.30
2018-09-10T02:31:27.624Z,15.40
2018-09-10T02:33:57.362Z,15.40
2018-09-10T02:36:26.463Z,15.50
2018-09-10T02:38:55.660Z,15.60
2018-09-10T02:41:25.277Z,15.60
2018-09-10T02:43:54.467Z,15.60
2018-09-10T02:46:23.877Z,15.60
2018-09-10T02:48:53.650Z,15.70
2018-09-10T02:51:22.793Z,15.80
2018-09-10T02:53:51.950Z,15.80
2018-09-10T02:56:21.784Z,15.80
2018-09-10T02:58:51.578Z,15.90
2018-09-10T03:01:20.857Z,15.90
2018-09-10T03:03:50.203Z,15.80
2018-09-10T03:06:19.626Z,15.80
2018-09-10T03:08:49.009Z,15.80
2018-09-10T03:11:18.337Z,15.90
2018-09-10T03:13:47.720Z,15.90
2018-09-10T03:16:17.216Z,16.00
2018-09-10T03:18:47.209Z,16.10
2018-09-10T03:21:16.445Z,16.10
2018-09-10T03:23:45.659Z,16.20
2018-09-10T03:26:14.940Z,16.20
2018-09-10T03:28:44.140Z,16.30
2018-09-10T03:31:13.373Z,16.30
2018-09-10T03:33:42.650Z,16.30
2018-09-10T03:36:11.801Z,16.40
2018-09-10T03:38:41.106Z,16.40
2018-09-10T03:41:10.353Z,16.40
2018-09-10T03:43:39.520Z,16.50
2018-09-10T03:46:08.893Z,16.50
2018-09-10T03:48:38.789Z,16.50
2018-09-10T03:51:08.085Z,16.50
2018-09-10T03:53:37.385Z,16.50
2018-09-10T03:56:06.540Z,16.50
2018-09-10T03:58:35.762Z,16.50
2018-09-10T04:01:05.051Z,16.40
2018-09-10T04:03:34.264Z,16.50
2018-09-10T04:06:03.578Z,16.50
2018-09-10T04:08:32.913Z,16.40
2018-09-10T04:11:02.139Z,16.40
2018-09-10T04:13:31.655Z,16.30
2018-09-10T04:16:01.228Z,16.30
2018-09-10T04:18:30.488Z,16.20
2018-09-10T04:20:59.693Z,16.20
2018-09-10T04:23:29.343Z,16.20
2018-09-10T04:25:59.282Z,16.10
2018-09-10T04:28:28.431Z,16.10
2018-09-10T04:30:57.664Z,16.00
2018-09-10T04:33:27.076Z,16.00
2018-09-10T04:35:56.272Z,15.90
2018-09-10T04:38:25.533Z,15.90
2018-09-10T04:40:54.664Z,15.80
2018-09-10T04:43:23.967Z,15.70
2018-09-10T04:45:53.380Z,15.70
2018-09-10T04:48:22.677Z,15.70
2018-09-10T04:50:52.274Z,15.60
2018-09-10T04:53:21.492Z,15.50
2018-09-10T04:55:50.754Z,15.50
2018-09-10T04:58:20.026Z,15.40
2018-09-10T05:00:49.448Z,15.30
2018-09-10T05:03:18.705Z,15.30
2018-09-10T05:05:47.911Z,15.20
2018-09-10T05:08:17.160Z,15.10
2018-09-10T05:10:46.384Z,15.00
2018-09-10T05:13:15.624Z,15.00
2018-09-10T05:15:45.607Z,15.00
2018-09-10T05:18:14.767Z,15.00
2018-09-10T05:20:44.001Z,14.90
2018-09-10T05:23:13.229Z,14.90
2018-09-10T05:25:42.428Z,14.90
2018-09-10T05:28:11.789Z,15.00
2018-09-10T05:30:40.904Z,15.00
2018-09-10T05:33:10.097Z,14.90
2018-09-10T05:35:39.324Z,15.00
2018-09-10T05:38:08.515Z,15.00
2018-09-10T05:40:37.802Z,15.00
2018-09-10T05:43:07.001Z,15.10
2018-09-10T05:45:36.356Z,15.20
2018-09-10T05:48:05.664Z,15.20
2018-09-10T05:50:34.868Z,15.30
2018-09-10T05:53:04.101Z,15.40
2018-09-10T05:55:33.428Z,15.50
2018-09-10T05:58:02.685Z,15.70
2018-09-10T06:00:31.813Z,15.90
2018-09-10T06:03:01.035Z,16.10
2018-09-10T06:05:30.196Z,16.30
2018-09-10T06:07:59.472Z,16.40
2018-09-10T06:10:28.753Z,16.50
2018-09-10T06:12:57.850Z,16.70
2018-09-10T06:15:27.138Z,16.80
2018-09-10T06:17:56.496Z,16.90
2018-09-10T06:20:25.737Z,17.00
2018-09-10T06:22:55.416Z,17.10
2018-09-10T06:25:24.653Z,17.10
2018-09-10T06:27:53.922Z,17.10
2018-09-10T06:30:23.265Z,17.20
2018-09-10T06:32:52.481Z,17.30
2018-09-10T06:35:21.702Z,17.60
2018-09-10T06:37:50.901Z,17.90
2018-09-10T06:40:20.114Z,18.00
2018-09-10T06:42:49.328Z,18.00
2018-09-10T06:45:18.510Z,18.20
2018-09-10T06:47:47.719Z,18.80
2018-09-10T06:50:17.564Z,19.00
2018-09-10T06:52:46.825Z,18.90
2018-09-10T06:55:16.020Z,18.80
2018-09-10T06:57:46.827Z,18.80
2018-09-10T07:00:16.098Z,18.60
2018-09-10T07:02:45.440Z,18.50
2018-09-10T07:05:15.591Z,18.50
2018-09-10T07:07:44.903Z,18.40
2018-09-10T07:10:14.433Z,18.40
2018-09-10T07:12:43.944Z,18.40
2018-09-10T07:15:13.047Z,18.40
2018-09-10T07:17:42.185Z,18.40
2018-09-10T07:20:11.528Z,18.50
2018-09-10T07:22:40.749Z,18.60
2018-09-10T07:25:09.876Z,18.60
2018-09-10T07:27:39.769Z,18.80
2018-09-10T07:30:08.993Z,18.90
2018-09-10T07:32:38.160Z,19.10
2018-09-10T07:35:07.405Z,19.20
2018-09-10T07:37:36.956Z,19.50
2018-09-10T07:40:06.320Z,19.70
2018-09-10T07:42:35.590Z,19.70
2018-09-10T07:45:04.922Z,19.50
2018-09-10T07:47:34.054Z,19.40
2018-09-10T07:50:03.262Z,19.40
2018-09-10T07:52:32.393Z,19.40
2018-09-10T07:55:01.803Z,19.40
2018-09-10T07:57:30.990Z,19.50
2018-09-10T08:00:01.239Z,19.90
2018-09-10T08:02:30.580Z,20.30
2018-09-10T08:05:00.100Z,20.70
2018-09-10T08:07:29.933Z,21.00
2018-09-10T08:09:59.264Z,21.30
2018-09-10T08:12:28.348Z,21.60
2018-09-10T08:14:57.706Z,21.60
2018-09-10T08:17:28.171Z,21.70
2018-09-10T08:19:57.383Z,21.60
2018-09-10T08:22:26.665Z,21.30
2018-09-10T08:24:55.881Z,21.00
2018-09-10T08:27:25.049Z,21.00
2018-09-10T08:29:54.235Z,21.30
2018-09-10T08:32:23.469Z,21.60
2018-09-10T08:34:52.764Z,22.10
2018-09-10T08:37:22.015Z,22.60
2018-09-10T08:39:51.193Z,22.60
2018-09-10T08:42:20.502Z,22.80
2018-09-10T08:44:49.573Z,23.10
2018-09-10T08:47:18.756Z,22.80
2018-09-10T08:49:47.979Z,22.40
2018-09-10T08:52:17.216Z,22.10
2018-09-10T08:54:46.659Z,21.60
2018-09-10T08:57:15.665Z,21.60
2018-09-10T08:59:45.463Z,22.20
2018-09-10T09:02:14.669Z,22.10
2018-09-10T09:04:43.858Z,21.90
2018-09-10T09:07:13.159Z,21.70
2018-09-10T09:09:43.187Z,21.60
2018-09-10T09:12:12.376Z,21.60
2018-09-10T09:14:41.752Z,21.80
2018-09-10T09:17:11.792Z,21.90
2018-09-10T09:19:40.898Z,21.90
2018-09-10T09:22:10.118Z,22.00
2018-09-10T09:24:39.404Z,22.20
2018-09-10T09:27:08.760Z,22.50
2018-09-10T09:29:38.022Z,23.20
2018-09-10T09:32:07.639Z,24.10
2018-09-10T09:34:42.295Z,24.50
2018-09-10T09:37:16.720Z,24.30
2018-09-10T09:39:51.402Z,24.20
2018-09-10T09:42:25.965Z,24.00
2018-09-10T09:45:00.474Z,23.50
2018-09-10T09:47:29.829Z,23.00
2018-09-10T09:49:59.033Z,22.90
2018-09-10T09:52:28.236Z,22.70
2018-09-10T09:54:57.498Z,22.50
2018-09-10T09:57:26.730Z,22.40
2018-09-10T09:59:55.924Z,22.60
2018-09-10T10:02:29.352Z,22.70
2018-09-10T10:04:59.248Z,22.80
2018-09-10T10:07:28.429Z,22.80
2018-09-10T10:09:57.651Z,22.80
2018-09-10T10:12:26.990Z,23.10
2018-09-10T10:14:56.039Z,23.10
2018-09-10T10:17:25.295Z,23.20
2018-09-10T10:19:54.488Z,23.20
2018-09-10T10:22:23.749Z,23.20
2018-09-10T10:24:53.004Z,23.40
2018-09-10T10:27:22.180Z,23.40
2018-09-10T10:29:51.516Z,23.00
2018-09-10T10:32:20.592Z,22.70
2018-09-10T10:34:49.804Z,22.40
2018-09-10T10:37:19.052Z,22.40
2018-09-10T10:39:48.223Z,22.40
2018-09-10T10:42:17.441Z,22.40
2018-09-10T10:44:46.682Z,22.20
2018-09-10T10:47:15.939Z,22.00
2018-09-10T10:49:45.752Z,21.90
2018-09-10T10:52:15.062Z,21.80
2018-09-10T10:54:44.224Z,21.80
2018-09-10T10:57:13.553Z,21.70
2018-09-10T10:59:42.691Z,21.90
2018-09-10T11:02:11.861Z,22.00
2018-09-10T11:04:40.979Z,22.00
2018-09-10T11:07:10.220Z,22.10
2018-09-10T11:09:39.496Z,22.30
2018-09-10T11:12:09.228Z,22.60
2018-09-10T11:14:38.420Z,22.40
2018-09-10T11:17:07.667Z,22.30
2018-09-10T11:19:36.838Z,21.90
2018-09-10T11:22:06.206Z,21.70
2018-09-10T11:24:35.317Z,21.50
2018-09-10T11:27:04.457Z,21.50
2018-09-10T11:29:33.709Z,21.50
2018-09-10T11:32:02.839Z,21.60
2018-09-10T11:34:32.100Z,21.50
2018-09-10T11:37:01.444Z,21.70
2018-09-10T11:39:30.581Z,21.60
2018-09-10T11:42:00.514Z,21.50
2018-09-10T11:44:30.365Z,21.50
2018-09-10T11:46:59.563Z,21.70
2018-09-10T11:49:28.760Z,21.80
2018-09-10T11:51:58.096Z,21.90
2018-09-10T11:54:27.216Z,22.00
2018-09-10T11:56:56.452Z,22.00
2018-09-10T11:59:25.972Z,22.20
2018-09-10T12:01:55.323Z,22.30
2018-09-10T12:04:25.557Z,22.20
2018-09-10T12:06:54.628Z,21.80
2018-09-10T12:09:23.761Z,21.60
2018-09-10T12:11:53.107Z,21.40
2018-09-10T12:14:22.389Z,21.20
2018-09-10T12:16:51.597Z,21.00
2018-09-10T12:19:20.779Z,21.40
2018-09-10T12:21:50.004Z,21.80
2018-09-10T12:24:19.792Z,21.90
2018-09-10T12:26:49.663Z,21.90
2018-09-10T12:29:18.908Z,21.70
2018-09-10T12:31:48.099Z,21.30
2018-09-10T12:34:17.266Z,21.20
2018-09-10T12:36:46.633Z,21.10
2018-09-10T12:39:15.909Z,20.90
2018-09-10T12:41:45.060Z,20.80
2018-09-10T12:44:14.301Z,20.60
2018-09-10T12:46:44.091Z,20.50
2018-09-10T12:49:13.412Z,20.50
2018-09-10T12:51:42.597Z,20.50
2018-09-10T12:54:12.028Z,20.50
2018-09-10T12:56:41.425Z,20.30
2018-09-10T12:59:10.609Z,20.30
2018-09-10T13:01:39.877Z,20.20
2018-09-10T13:04:09.151Z,20.00
2018-09-10T13:06:38.313Z,19.90
2018-09-10T13:09:08.236Z,19.80
2018-09-10T13:11:37.423Z,19.70
2018-09-10T13:14:06.942Z,19.60
2018-09-10T13:16:36.157Z,19.60
2018-09-10T13:19:05.535Z,19.70
2018-09-10T13:21:34.662Z,19.80
2018-09-10T13:24:04.116Z,19.80
2018-09-10T13:26:33.282Z,19.70
2018-09-10T13:29:02.543Z,19.70
2018-09-10T13:31:31.786Z,19.80
2018-09-10T13:34:01.073Z,19.80
2018-09-10T13:36:30.376Z,19.80
2018-09-10T13:38:59.548Z,19.90
2018-09-10T13:41:28.740Z,19.90
2018-09-10T13:43:57.921Z,19.90
2018-09-10T13:46:27.143Z,20.10
2018-09-10T13:48:56.421Z,20.20
2018-09-10T13:51:25.956Z,20.20
2018-09-10T13:53:55.144Z,20.30
2018-09-10T13:56:24.277Z,20.30
2018-09-10T13:58:53.543Z,20.30
2018-09-10T14:01:23.798Z,20.10
2018-09-10T14:03:53.038Z,20.10
2018-09-10T14:06:22.613Z,20.10
2018-09-10T14:08:52.068Z,20.30
2018-09-10T14:11:21.387Z,20.20
2018-09-10T14:13:50.616Z,20.10
2018-09-10T14:16:19.812Z,20.10
2018-09-10T14:18:50.105Z,20.10
2018-09-10T14:21:19.431Z,20.00
2018-09-10T14:23:48.657Z,19.90
2018-09-10T14:26:18.065Z,19.90
2018-09-10T14:28:47.470Z,19.80
2018-09-10T14:31:16.736Z,19.70
2018-09-10T14:33:45.988Z,19.50
2018-09-10T14:36:15.099Z,19.50
2018-09-10T14:38:44.473Z,19.40
2018-09-10T14:41:13.714Z,19.50
2018-09-10T14:43:42.876Z,19.40
2018-09-10T14:46:12.104Z,19.50
2018-09-10T14:48:41.336Z,19.60
2018-09-10T14:51:10.505Z,19.60
2018-09-10T14:53:39.663Z,19.60
2018-09-10T14:56:09.039Z,19.70
2018-09-10T14:58:38.188Z,19.80
2018-09-10T15:01:07.504Z,19.90
2018-09-10T15:03:37.098Z,19.90
2018-09-10T15:06:06.754Z,19.80
2018-09-10T15:08:35.970Z,19.70
2018-09-10T15:11:05.234Z,19.60
2018-09-10T15:13:34.478Z,19.60
2018-09-10T15:16:03.904Z,19.60
2018-09-10T15:18:33.203Z,19.80
2018-09-10T15:21:02.339Z,19.90
2018-09-10T15:23:31.749Z,20.00
2018-09-10T15:26:01.099Z,20.10
2018-09-10T15:28:30.292Z,20.00
2018-09-10T15:31:00.186Z,19.80
2018-09-10T15:33:29.457Z,19.60
2018-09-10T15:35:58.633Z,19.40
2018-09-10T15:38:27.754Z,19.30
2018-09-10T15:40:56.933Z,19.20
2018-09-10T15:43:26.201Z,19.10
2018-09-10T15:45:55.375Z,19.00
2018-09-10T15:48:24.509Z,18.90
2018-09-10T15:50:53.835Z,18.80
2018-09-10T15:53:23.090Z,18.70
2018-09-10T15:55:52.245Z,18.70
2018-09-10T15:58:21.751Z,18.70
2018-09-10T16:00:51.023Z,18.70
2018-09-10T16:03:24.095Z,18.60
2018-09-10T16:05:53.405Z,18.60
2018-09-10T16:08:22.709Z,18.50
2018-09-10T16:10:52.426Z,18.50
2018-09-10T16:13:22.283Z,18.40
2018-09-10T16:15:52.084Z,18.40
2018-09-10T16:18:21.237Z,18.40
2018-09-10T16:20:50.327Z,18.40
2018-09-10T16:23:19.605Z,18.40
2018-09-10T16:25:48.739Z,18.40
2018-09-10T16:28:18.183Z,18.40
2018-09-10T16:30:47.388Z,18.40
2018-09-10T16:33:16.553Z,18.40
2018-09-10T16:35:45.709Z,18.30
2018-09-10T16:38:14.928Z,18.30
2018-09-10T16:40:44.131Z,18.20
2018-09-10T16:43:13.364Z,18.20
2018-09-10T16:45:42.552Z,18.20
2018-09-10T16:48:12.088Z,18.20
2018-09-10T16:50:41.196Z,18.10
2018-09-10T16:53:11.117Z,18.10
2018-09-10T16:55:40.431Z,18.00
2018-09-10T16:58:09.580Z,17.90
2018-09-10T17:00:38.797Z,17.90
2018-09-10T17:03:08.074Z,17.80
2018-09-10T17:05:37.205Z,17.70
2018-09-10T17:08:06.435Z,17.70
2018-09-10T17:10:35.628Z,17.70
2018-09-10T17:13:04.700Z,17.70
2018-09-10T17:15:33.851Z,17.70
2018-09-10T17:18:03.163Z,17.70
2018-09-10T17:20:32.292Z,17.70
2018-09-10T17:23:01.835Z,17.50
2018-09-10T17:25:30.997Z,17.50
2018-09-10T17:28:00.212Z,17.40
2018-09-10T17:30:29.349Z,17.30
2018-09-10T17:32:58.464Z,17.20
2018-09-10T17:35:28.323Z,17.10
2018-09-10T17:37:57.501Z,17.10
2018-09-10T17:40:26.701Z,17.10
2018-09-10T17:42:55.935Z,17.10
2018-09-10T17:45:25.715Z,17.00
2018-09-10T17:47:54.860Z,16.90
2018-09-10T17:50:23.983Z,16.90
2018-09-10T17:52:53.166Z,16.90
2018-09-10T17:55:22.259Z,17.00
2018-09-10T17:57:51.664Z,17.00
2018-09-10T18:00:27.609Z,17.00
2018-09-10T18:02:56.712Z,16.90
2018-09-10T18:05:25.829Z,16.90
2018-09-10T18:07:54.961Z,16.90
2018-09-10T18:10:24.108Z,16.80
2018-09-10T18:12:53.208Z,16.70
2018-09-10T18:15:22.397Z,16.80
2018-09-10T18:17:51.527Z,16.70
2018-09-10T18:20:20.728Z,16.60
2018-09-10T18:22:49.891Z,16.50
2018-09-10T18:25:18.987Z,16.50
2018-09-10T18:27:48.656Z,16.50
2018-09-10T18:30:17.830Z,16.40
2018-09-10T18:32:46.940Z,16.40
2018-09-10T18:35:16.139Z,16.30
2018-09-10T18:37:45.360Z,16.30
2018-09-10T18:40:14.561Z,16.30
2018-09-10T18:42:43.741Z,16.30
2018-09-10T18:45:12.848Z,16.30
2018-09-10T18:47:42.111Z,16.30
2018-09-10T18:50:11.375Z,16.20
2018-09-10T18:52:40.773Z,16.20
2018-09-10T18:55:10.011Z,16.10
2018-09-10T18:57:39.133Z,16.10
2018-09-10T19:00:08.556Z,16.00
2018-09-10T19:02:37.894Z,16.00
2018-09-10T19:05:07.220Z,16.00
2018-09-10T19:07:36.509Z,16.00
2018-09-10T19:10:06.690Z,15.90
2018-09-10T19:12:36.034Z,15.90
2018-09-10T19:15:05.774Z,15.90
2018-09-10T19:17:35.057Z,15.90
2018-09-10T19:20:04.400Z,15.90
2018-09-10T19:22:33.636Z,15.80
2018-09-10T19:25:02.854Z,15.80
2018-09-10T19:27:33.166Z,15.80
2018-09-10T19:30:02.379Z,15.80
2018-09-10T19:32:31.802Z,15.80
2018-09-10T19:35:00.956Z,15.80
2018-09-10T19:37:30.765Z,15.80
2018-09-10T19:39:59.884Z,15.80
2018-09-10T19:42:29.612Z,15.90
2018-09-10T19:44:58.782Z,15.80
2018-09-10T19:47:28.185Z,15.90
2018-09-10T19:49:57.382Z,15.80
2018-09-10T19:52:26.590Z,15.80
2018-09-10T19:54:55.883Z,15.80
2018-09-10T19:57:25.307Z,15.80
2018-09-10T19:59:54.577Z,15.80
2018-09-10T20:02:23.780Z,15.70
2018-09-10T20:04:53.025Z,15.80
2018-09-10T20:07:22.320Z,15.80
2018-09-10T20:09:51.648Z,15.80
2018-09-10T20:12:20.823Z,15.80
2018-09-10T20:14:52.918Z,15.80
2018-09-10T20:17:22.164Z,15.80
2018-09-10T20:19:51.320Z,15.90
2018-09-10T20:22:20.637Z,15.90
2018-09-10T20:24:49.956Z,15.80
2018-09-10T20:27:19.119Z,15.80
2018-09-10T20:29:48.333Z,15.80
2018-09-10T20:32:17.643Z,15.80
2018-09-10T20:34:46.939Z,15.80
2018-09-10T20:37:16.137Z,15.90
2018-09-10T20:39:45.368Z,16.00
2018-09-10T20:42:14.503Z,15.90
2018-09-10T20:44:44.525Z,15.90
2018-09-10T20:47:13.763Z,15.90
2018-09-10T20:49:42.918Z,15.90
2018-09-10T20:52:12.244Z,15.80
2018-09-10T20:54:41.562Z,15.80
2018-09-10T20:57:11.238Z,15.80
2018-09-10T20:59:40.737Z,15.80
2018-09-10T21:02:10.110Z,15.80
2018-09-10T21:04:39.195Z,15.70
2018-09-10T21:07:09.051Z,15.60
2018-09-10T21:09:38.407Z,15.50
2018-09-10T21:12:07.548Z,15.50
2018-09-10T21:14:36.739Z,15.40
2018-09-10T21:17:06.703Z,15.40
2018-09-10T21:19:35.891Z,15.40
2018-09-10T21:22:05.080Z,15.40
2018-09-10T21:24:34.376Z,15.40
2018-09-10T21:27:04.230Z,15.50
2018-09-10T21:29:33.383Z,15.50
2018-09-10T21:32:02.607Z,15.50
2018-09-10T21:34:31.837Z,15.50
2018-09-10T21:37:01.131Z,15.40
2018-09-10T21:39:30.288Z,15.50
2018-09-10T21:41:59.520Z,15.50
2018-09-10T21:44:28.777Z,15.50
2018-09-10T21:46:58.118Z,15.50
2018-09-10T21:49:27.304Z,15.40
2018-09-10T21:51:56.495Z,15.50
2018-09-10T21:54:25.696Z,15.50
2018-09-10T21:56:54.789Z,15.60
2018-09-10T21:59:24.076Z,15.60
2018-09-10T22:01:53.288Z,15.50
2018-09-10T22:04:22.588Z,15.50
2018-09-10T22:06:51.905Z,15.50
2018-09-10T22:09:22.113Z,15.50
2018-09-10T22:11:56.647Z,15.50
2018-09-10T22:14:26.074Z,15.50
2018-09-10T22:16:55.246Z,15.50
2018-09-10T22:19:24.393Z,15.60
2018-09-10T22:21:53.604Z,15.70
2018-09-10T22:24:22.815Z,15.70
2018-09-10T22:26:52.691Z,15.60
2018-09-10T22:29:22.011Z,15.50
2018-09-10T22:31:51.108Z,15.50
2018-09-10T22:34:20.442Z,15.60
2018-09-10T22:36:49.643Z,15.50
2018-09-10T22:39:19.003Z,15.70
2018-09-10T22:41:49.195Z,15.70
2018-09-10T22:44:18.397Z,15.70
2018-09-10T22:46:47.571Z,15.80
2018-09-10T22:49:16.758Z,15.70
2018-09-10T22:51:45.980Z,15.80
2018-09-10T22:54:15.150Z,15.70
2018-09-10T22:56:44.288Z,15.70
2018-09-10T22:59:13.415Z,15.80
2018-09-10T23:01:42.748Z,15.80
2018-09-10T23:04:11.956Z,15.80
2018-09-10T23:06:41.234Z,15.70
2018-09-10T23:09:10.476Z,15.70
2018-09-10T23:11:40.236Z,15.70
2018-09-10T23:14:09.504Z,15.60
2018-09-10T23:16:38.704Z,15.60
2018-09-10T23:19:07.988Z,15.50
2018-09-10T23:21:37.140Z,15.60
2018-09-10T23:24:06.399Z,15.50
2018-09-10T23:26:35.634Z,15.50
2018-09-10T23:29:04.983Z,15.50
2018-09-10T23:31:34.167Z,15.50
2018-09-10T23:34:03.377Z,15.50
2018-09-10T23:36:32.563Z,15.60
2018-09-10T23:39:01.774Z,15.70
2018-09-10T23:41:30.938Z,15.70
2018-09-10T23:44:00.856Z,15.80
2018-09-10T23:46:30.204Z,15.80
2018-09-10T23:48:59.386Z,15.70
2018-09-10T23:51:28.581Z,15.70
2018-09-10T23:53:57.921Z,15.70
2018-09-10T23:56:27.400Z,15.60
2018-09-10T23:58:56.580Z,15.60
